sensor_id;sensor_type;location;lat;lon;timestamp;P1;durP1;ratioP1;P2;durP2;ratioP2
55031;SDS011;40928;51.076;7.950;2024-01-15T00:02:15;16.42;;;8.68;;
55031;SDS011;40928;51.076;7.950;2024-01-15T00:04:41;22.92;;;9.13;;
55031;SDS011;40928;51.076;7.950;2024-01-15T00:07:07;17.50;;;7.15;;
55031;SDS011;40928;51.076;7.950;2024-01-15T00:09:34;16.17;;;7.40;;
55031;SDS011;40928;51.076;7.950;2024-01-15T00:12:00;14.07;;;8.00;;
55031;SDS011;40928;51.076;7.950;2024-01-15T00:14:27;18.20;;;8.52;;
55031;SDS011;40928;51.076;7.950;2024-01-15T00:16:53;18.70;;;8.52;;
55031;SDS011;40928;51.076;7.950;2024-01-15T00:19:23;20.35;;;9.30;;
55031;SDS011;40928;51.076;7.950;2024-01-15T00:21:49;18.35;;;8.70;;
55031;SDS011;40928;51.076;7.950;2024-01-15T00:24:15;16.67;;;8.73;;
55031;SDS011;40928;51.076;7.950;2024-01-15T00:26:41;22.83;;;10.25;;
55031;SDS011;40928;51.076;7.950;2024-01-15T00:29:07;16.58;;;9.25;;
55031;SDS011;40928;51.076;7.950;2024-01-15T00:31:34;22.52;;;10.13;;
55031;SDS011;40928;51.076;7.950;2024-01-15T00:34:00;19.10;;;9.35;;
55031;SDS011;40928;51.076;7.950;2024-01-15T00:36:25;21.70;;;9.27;;
55031;SDS011;40928;51.076;7.950;2024-01-15T00:38:51;17.40;;;9.52;;
55031;SDS011;40928;51.076;7.950;2024-01-15T00:41:17;17.70;;;8.63;;
55031;SDS011;40928;51.076;7.950;2024-01-15T00:43:44;24.00;;;10.32;;
55031;SDS011;40928;51.076;7.950;2024-01-15T00:46:10;17.23;;;9.27;;
55031;SDS011;40928;51.076;7.950;2024-01-15T00:48:36;18.50;;;9.52;;
55031;SDS011;40928;51.076;7.950;2024-01-15T00:51:01;20.55;;;9.63;;
55031;SDS011;40928;51.076;7.950;2024-01-15T00:53:27;20.50;;;9.45;;
55031;SDS011;40928;51.076;7.950;2024-01-15T00:55:53;22.25;;;10.10;;
55031;SDS011;40928;51.076;7.950;2024-01-15T00:58:18;21.67;;;10.27;;
55031;SDS011;40928;51.076;7.950;2024-01-15T01:00:44;21.83;;;9.65;;
55031;SDS011;40928;51.076;7.950;2024-01-15T01:03:10;18.08;;;9.10;;
55031;SDS011;40928;51.076;7.950;2024-01-15T01:05:35;19.75;;;9.30;;
55031;SDS011;40928;51.076;7.950;2024-01-15T01:08:01;18.73;;;8.90;;
55031;SDS011;40928;51.076;7.950;2024-01-15T01:10:27;16.58;;;8.68;;
55031;SDS011;40928;51.076;7.950;2024-01-15T01:12:52;19.63;;;9.98;;
55031;SDS011;40928;51.076;7.950;2024-01-15T01:15:18;18.00;;;8.75;;
55031;SDS011;40928;51.076;7.950;2024-01-15T01:17:43;17.98;;;8.75;;
55031;SDS011;40928;51.076;7.950;2024-01-15T01:20:09;17.77;;;9.23;;
55031;SDS011;40928;51.076;7.950;2024-01-15T01:22:35;21.00;;;10.25;;
55031;SDS011;40928;51.076;7.950;2024-01-15T01:25:01;19.10;;;9.93;;
55031;SDS011;40928;51.076;7.950;2024-01-15T01:27:27;20.05;;;8.57;;
55031;SDS011;40928;51.076;7.950;2024-01-15T01:29:53;18.60;;;9.50;;
55031;SDS011;40928;51.076;7.950;2024-01-15T01:32:19;16.25;;;8.65;;
55031;SDS011;40928;51.076;7.950;2024-01-15T01:34:45;23.75;;;9.32;;
55031;SDS011;40928;51.076;7.950;2024-01-15T01:37:10;17.42;;;9.68;;
55031;SDS011;40928;51.076;7.950;2024-01-15T01:39:40;18.42;;;9.13;;
55031;SDS011;40928;51.076;7.950;2024-01-15T01:42:09;18.98;;;8.18;;
55031;SDS011;40928;51.076;7.950;2024-01-15T01:44:34;15.98;;;7.25;;
55031;SDS011;40928;51.076;7.950;2024-01-15T01:47:00;16.30;;;7.85;;
55031;SDS011;40928;51.076;7.950;2024-01-15T01:49:27;18.00;;;7.50;;
55031;SDS011;40928;51.076;7.950;2024-01-15T01:51:55;13.60;;;7.47;;
55031;SDS011;40928;51.076;7.950;2024-01-15T01:54:23;18.10;;;8.75;;
55031;SDS011;40928;51.076;7.950;2024-01-15T01:56:49;13.00;;;7.72;;
55031;SDS011;40928;51.076;7.950;2024-01-15T01:59:16;16.73;;;7.60;;
55031;SDS011;40928;51.076;7.950;2024-01-15T02:01:42;16.38;;;7.70;;
55031;SDS011;40928;51.076;7.950;2024-01-15T02:04:10;13.10;;;6.85;;
55031;SDS011;40928;51.076;7.950;2024-01-15T02:06:36;16.38;;;7.03;;
55031;SDS011;40928;51.076;7.950;2024-01-15T02:09:03;18.98;;;7.78;;
55031;SDS011;40928;51.076;7.950;2024-01-15T02:11:29;15.32;;;7.45;;
55031;SDS011;40928;51.076;7.950;2024-01-15T02:13:55;16.00;;;7.57;;
55031;SDS011;40928;51.076;7.950;2024-01-15T02:16:20;14.07;;;7.35;;
55031;SDS011;40928;51.076;7.950;2024-01-15T02:18:46;13.30;;;5.95;;
55031;SDS011;40928;51.076;7.950;2024-01-15T02:21:12;15.90;;;7.18;;
55031;SDS011;40928;51.076;7.950;2024-01-15T02:23:38;15.70;;;8.05;;
55031;SDS011;40928;51.076;7.950;2024-01-15T02:26:04;15.52;;;7.50;;
55031;SDS011;40928;51.076;7.950;2024-01-15T02:28:30;18.23;;;6.95;;
55031;SDS011;40928;51.076;7.950;2024-01-15T02:30:57;13.75;;;6.38;;
55031;SDS011;40928;51.076;7.950;2024-01-15T02:33:23;17.73;;;6.75;;
55031;SDS011;40928;51.076;7.950;2024-01-15T02:35:49;15.43;;;6.57;;
55031;SDS011;40928;51.076;7.950;2024-01-15T02:38:17;15.00;;;7.38;;
55031;SDS011;40928;51.076;7.950;2024-01-15T02:40:44;14.57;;;6.55;;
55031;SDS011;40928;51.076;7.950;2024-01-15T02:43:10;14.77;;;6.85;;
55031;SDS011;40928;51.076;7.950;2024-01-15T02:45:36;16.35;;;7.50;;
55031;SDS011;40928;51.076;7.950;2024-01-15T02:48:01;18.75;;;7.90;;
55031;SDS011;40928;51.076;7.950;2024-01-15T02:50:27;17.10;;;7.15;;
55031;SDS011;40928;51.076;7.950;2024-01-15T02:52:53;16.75;;;6.25;;
55031;SDS011;40928;51.076;7.950;2024-01-15T02:55:19;17.70;;;7.53;;
55031;SDS011;40928;51.076;7.950;2024-01-15T02:57:44;16.48;;;6.53;;
55031;SDS011;40928;51.076;7.950;2024-01-15T03:00:11;18.05;;;7.97;;
55031;SDS011;40928;51.076;7.950;2024-01-15T03:02:37;13.55;;;7.30;;
55031;SDS011;40928;51.076;7.950;2024-01-15T03:05:10;18.80;;;7.18;;
55031;SDS011;40928;51.076;7.950;2024-01-15T03:07:35;14.35;;;7.18;;
55031;SDS011;40928;51.076;7.950;2024-01-15T03:10:01;23.25;;;8.27;;
55031;SDS011;40928;51.076;7.950;2024-01-15T03:12:27;17.02;;;7.13;;
55031;SDS011;40928;51.076;7.950;2024-01-15T03:14:53;18.90;;;6.47;;
55031;SDS011;40928;51.076;7.950;2024-01-15T03:17:19;17.73;;;7.55;;
55031;SDS011;40928;51.076;7.950;2024-01-15T03:19:44;16.95;;;7.25;;
55031;SDS011;40928;51.076;7.950;2024-01-15T03:22:10;17.30;;;7.30;;
55031;SDS011;40928;51.076;7.950;2024-01-15T03:24:35;12.52;;;6.68;;
55031;SDS011;40928;51.076;7.950;2024-01-15T03:27:02;14.98;;;6.75;;
55031;SDS011;40928;51.076;7.950;2024-01-15T03:29:27;14.85;;;6.15;;
55031;SDS011;40928;51.076;7.950;2024-01-15T03:31:53;25.52;;;9.40;;
55031;SDS011;40928;51.076;7.950;2024-01-15T03:34:19;16.38;;;7.45;;
55031;SDS011;40928;51.076;7.950;2024-01-15T03:36:45;19.92;;;7.45;;
55031;SDS011;40928;51.076;7.950;2024-01-15T03:39:10;20.50;;;7.38;;
55031;SDS011;40928;51.076;7.950;2024-01-15T03:41:36;16.52;;;7.70;;
55031;SDS011;40928;51.076;7.950;2024-01-15T03:44:02;23.50;;;9.35;;
55031;SDS011;40928;51.076;7.950;2024-01-15T03:46:27;17.38;;;8.15;;
55031;SDS011;40928;51.076;7.950;2024-01-15T03:48:53;23.80;;;8.90;;
55031;SDS011;40928;51.076;7.950;2024-01-15T03:51:19;17.17;;;7.72;;
55031;SDS011;40928;51.076;7.950;2024-01-15T03:53:45;16.17;;;8.05;;
55031;SDS011;40928;51.076;7.950;2024-01-15T03:56:10;18.33;;;7.95;;
55031;SDS011;40928;51.076;7.950;2024-01-15T03:58:36;23.50;;;7.53;;
55031;SDS011;40928;51.076;7.950;2024-01-15T04:01:01;19.42;;;7.50;;
55031;SDS011;40928;51.076;7.950;2024-01-15T04:03:27;17.33;;;6.10;;
55031;SDS011;40928;51.076;7.950;2024-01-15T04:05:53;18.80;;;8.20;;
55031;SDS011;40928;51.076;7.950;2024-01-15T04:08:18;18.90;;;8.57;;
55031;SDS011;40928;51.076;7.950;2024-01-15T04:10:44;18.95;;;7.50;;
55031;SDS011;40928;51.076;7.950;2024-01-15T04:13:10;21.60;;;8.60;;
55031;SDS011;40928;51.076;7.950;2024-01-15T04:15:35;16.30;;;7.40;;
55031;SDS011;40928;51.076;7.950;2024-01-15T04:18:02;17.63;;;7.15;;
55031;SDS011;40928;51.076;7.950;2024-01-15T04:20:28;17.92;;;6.93;;
55031;SDS011;40928;51.076;7.950;2024-01-15T04:22:54;22.73;;;7.22;;
55031;SDS011;40928;51.076;7.950;2024-01-15T04:25:20;16.95;;;6.75;;
55031;SDS011;40928;51.076;7.950;2024-01-15T04:27:45;18.95;;;7.35;;
55031;SDS011;40928;51.076;7.950;2024-01-15T04:30:11;19.38;;;7.38;;
55031;SDS011;40928;51.076;7.950;2024-01-15T04:32:37;18.58;;;7.18;;
55031;SDS011;40928;51.076;7.950;2024-01-15T04:35:03;19.50;;;8.52;;
55031;SDS011;40928;51.076;7.950;2024-01-15T04:37:29;21.63;;;7.45;;
55031;SDS011;40928;51.076;7.950;2024-01-15T04:39:54;19.58;;;8.93;;
55031;SDS011;40928;51.076;7.950;2024-01-15T04:42:21;19.83;;;8.18;;
55031;SDS011;40928;51.076;7.950;2024-01-15T04:44:47;21.13;;;7.60;;
55031;SDS011;40928;51.076;7.950;2024-01-15T04:47:12;24.17;;;8.68;;
55031;SDS011;40928;51.076;7.950;2024-01-15T04:49:38;20.52;;;8.55;;
55031;SDS011;40928;51.076;7.950;2024-01-15T04:52:04;19.80;;;8.18;;
55031;SDS011;40928;51.076;7.950;2024-01-15T04:54:30;21.25;;;7.47;;
55031;SDS011;40928;51.076;7.950;2024-01-15T04:56:55;19.90;;;8.52;;
55031;SDS011;40928;51.076;7.950;2024-01-15T04:59:21;21.90;;;8.32;;
55031;SDS011;40928;51.076;7.950;2024-01-15T05:01:47;25.90;;;8.40;;
55031;SDS011;40928;51.076;7.950;2024-01-15T05:04:15;18.55;;;6.57;;
55031;SDS011;40928;51.076;7.950;2024-01-15T05:06:40;23.58;;;8.63;;
55031;SDS011;40928;51.076;7.950;2024-01-15T05:09:06;21.10;;;8.20;;
55031;SDS011;40928;51.076;7.950;2024-01-15T05:11:32;23.63;;;7.43;;
55031;SDS011;40928;51.076;7.950;2024-01-15T05:13:57;21.95;;;8.38;;
55031;SDS011;40928;51.076;7.950;2024-01-15T05:16:23;23.42;;;7.90;;
55031;SDS011;40928;51.076;7.950;2024-01-15T05:18:49;14.35;;;7.32;;
55031;SDS011;40928;51.076;7.950;2024-01-15T05:21:14;17.42;;;7.68;;
55031;SDS011;40928;51.076;7.950;2024-01-15T05:23:40;17.92;;;7.25;;
55031;SDS011;40928;51.076;7.950;2024-01-15T05:26:06;18.83;;;7.47;;
55031;SDS011;40928;51.076;7.950;2024-01-15T05:28:34;24.13;;;7.20;;
55031;SDS011;40928;51.076;7.950;2024-01-15T05:31:00;16.42;;;7.95;;
55031;SDS011;40928;51.076;7.950;2024-01-15T05:33:26;23.40;;;7.93;;
55031;SDS011;40928;51.076;7.950;2024-01-15T05:35:52;21.17;;;7.60;;
55031;SDS011;40928;51.076;7.950;2024-01-15T05:38:19;21.08;;;8.30;;
55031;SDS011;40928;51.076;7.950;2024-01-15T05:40:44;27.40;;;8.60;;
55031;SDS011;40928;51.076;7.950;2024-01-15T05:43:10;23.00;;;8.45;;
55031;SDS011;40928;51.076;7.950;2024-01-15T05:45:37;24.13;;;8.80;;
55031;SDS011;40928;51.076;7.950;2024-01-15T05:48:05;20.58;;;8.35;;
55031;SDS011;40928;51.076;7.950;2024-01-15T05:50:30;19.83;;;8.73;;
55031;SDS011;40928;51.076;7.950;2024-01-15T05:52:56;19.73;;;8.40;;
55031;SDS011;40928;51.076;7.950;2024-01-15T05:55:22;21.15;;;9.25;;
55031;SDS011;40928;51.076;7.950;2024-01-15T05:57:47;23.52;;;7.78;;
55031;SDS011;40928;51.076;7.950;2024-01-15T06:02:48;20.90;;;9.45;;
55031;SDS011;40928;51.076;7.950;2024-01-15T06:05:13;24.90;;;9.65;;
55031;SDS011;40928;51.076;7.950;2024-01-15T06:07:39;23.50;;;9.43;;
55031;SDS011;40928;51.076;7.950;2024-01-15T06:10:07;26.33;;;9.02;;
55031;SDS011;40928;51.076;7.950;2024-01-15T06:12:33;20.10;;;9.75;;
55031;SDS011;40928;51.076;7.950;2024-01-15T06:14:59;21.05;;;9.45;;
55031;SDS011;40928;51.076;7.950;2024-01-15T06:17:24;31.55;;;11.55;;
55031;SDS011;40928;51.076;7.950;2024-01-15T06:19:50;26.70;;;10.27;;
55031;SDS011;40928;51.076;7.950;2024-01-15T06:22:16;27.98;;;9.82;;
55031;SDS011;40928;51.076;7.950;2024-01-15T06:24:42;24.52;;;10.95;;
55031;SDS011;40928;51.076;7.950;2024-01-15T06:27:08;22.38;;;9.75;;
55031;SDS011;40928;51.076;7.950;2024-01-15T06:29:37;26.85;;;11.02;;
55031;SDS011;40928;51.076;7.950;2024-01-15T06:32:03;30.58;;;10.43;;
55031;SDS011;40928;51.076;7.950;2024-01-15T06:34:29;22.35;;;10.68;;
55031;SDS011;40928;51.076;7.950;2024-01-15T06:36:55;27.45;;;9.38;;
55031;SDS011;40928;51.076;7.950;2024-01-15T06:39:21;26.92;;;9.70;;
55031;SDS011;40928;51.076;7.950;2024-01-15T06:41:46;28.92;;;8.73;;
55031;SDS011;40928;51.076;7.950;2024-01-15T06:44:12;23.80;;;9.43;;
55031;SDS011;40928;51.076;7.950;2024-01-15T06:46:44;17.45;;;8.07;;
55031;SDS011;40928;51.076;7.950;2024-01-15T06:49:10;19.73;;;9.30;;
55031;SDS011;40928;51.076;7.950;2024-01-15T06:51:37;18.77;;;8.43;;
55031;SDS011;40928;51.076;7.950;2024-01-15T06:54:03;21.60;;;9.70;;
55031;SDS011;40928;51.076;7.950;2024-01-15T06:56:28;27.10;;;9.82;;
55031;SDS011;40928;51.076;7.950;2024-01-15T06:58:54;23.48;;;7.75;;
55031;SDS011;40928;51.076;7.950;2024-01-15T07:01:20;19.17;;;9.10;;
55031;SDS011;40928;51.076;7.950;2024-01-15T07:03:46;18.23;;;8.30;;
55031;SDS011;40928;51.076;7.950;2024-01-15T07:06:12;24.13;;;8.88;;
55031;SDS011;40928;51.076;7.950;2024-01-15T07:08:38;15.27;;;7.22;;
55031;SDS011;40928;51.076;7.950;2024-01-15T07:11:04;18.73;;;8.52;;
55031;SDS011;40928;51.076;7.950;2024-01-15T07:13:31;16.35;;;8.00;;
55031;SDS011;40928;51.076;7.950;2024-01-15T07:15:57;17.83;;;8.05;;
55031;SDS011;40928;51.076;7.950;2024-01-15T07:18:23;14.05;;;7.63;;
55031;SDS011;40928;51.076;7.950;2024-01-15T07:20:48;15.05;;;7.78;;
55031;SDS011;40928;51.076;7.950;2024-01-15T07:23:14;20.85;;;7.30;;
55031;SDS011;40928;51.076;7.950;2024-01-15T07:25:40;21.20;;;8.27;;
55031;SDS011;40928;51.076;7.950;2024-01-15T07:28:05;16.73;;;8.00;;
55031;SDS011;40928;51.076;7.950;2024-01-15T07:30:31;18.40;;;8.98;;
55031;SDS011;40928;51.076;7.950;2024-01-15T07:32:56;17.33;;;8.55;;
55031;SDS011;40928;51.076;7.950;2024-01-15T07:35:22;17.27;;;7.95;;
55031;SDS011;40928;51.076;7.950;2024-01-15T07:37:47;16.60;;;7.05;;
55031;SDS011;40928;51.076;7.950;2024-01-15T07:40:13;17.77;;;7.47;;
55031;SDS011;40928;51.076;7.950;2024-01-15T07:42:38;15.05;;;8.27;;
55031;SDS011;40928;51.076;7.950;2024-01-15T07:45:04;19.40;;;7.80;;
55031;SDS011;40928;51.076;7.950;2024-01-15T07:47:30;15.48;;;7.30;;
55031;SDS011;40928;51.076;7.950;2024-01-15T07:49:55;17.13;;;8.05;;
55031;SDS011;40928;51.076;7.950;2024-01-15T07:52:21;16.05;;;8.15;;
55031;SDS011;40928;51.076;7.950;2024-01-15T07:54:47;15.27;;;7.75;;
55031;SDS011;40928;51.076;7.950;2024-01-15T07:57:12;17.70;;;7.72;;
55031;SDS011;40928;51.076;7.950;2024-01-15T07:59:38;14.70;;;7.95;;
55031;SDS011;40928;51.076;7.950;2024-01-15T08:02:03;12.13;;;6.55;;
55031;SDS011;40928;51.076;7.950;2024-01-15T08:04:29;12.32;;;7.40;;
55031;SDS011;40928;51.076;7.950;2024-01-15T08:06:54;11.57;;;6.20;;
55031;SDS011;40928;51.076;7.950;2024-01-15T08:09:21;13.10;;;6.78;;
55031;SDS011;40928;51.076;7.950;2024-01-15T08:11:47;12.00;;;6.13;;
55031;SDS011;40928;51.076;7.950;2024-01-15T08:14:14;11.60;;;6.15;;
55031;SDS011;40928;51.076;7.950;2024-01-15T08:16:40;10.50;;;5.95;;
55031;SDS011;40928;51.076;7.950;2024-01-15T08:19:06;8.48;;;5.47;;
55031;SDS011;40928;51.076;7.950;2024-01-15T08:21:31;10.18;;;5.07;;
55031;SDS011;40928;51.076;7.950;2024-01-15T08:23:58;7.97;;;4.45;;
55031;SDS011;40928;51.076;7.950;2024-01-15T08:26:28;6.97;;;4.65;;
55031;SDS011;40928;51.076;7.950;2024-01-15T08:28:54;9.27;;;4.97;;
55031;SDS011;40928;51.076;7.950;2024-01-15T08:31:20;15.50;;;5.35;;
55031;SDS011;40928;51.076;7.950;2024-01-15T08:33:45;9.27;;;5.45;;
55031;SDS011;40928;51.076;7.950;2024-01-15T08:36:11;7.90;;;4.82;;
55031;SDS011;40928;51.076;7.950;2024-01-15T08:38:37;7.90;;;4.75;;
55031;SDS011;40928;51.076;7.950;2024-01-15T08:41:02;9.02;;;5.13;;
55031;SDS011;40928;51.076;7.950;2024-01-15T08:43:28;8.02;;;4.13;;
55031;SDS011;40928;51.076;7.950;2024-01-15T08:45:56;7.93;;;4.80;;
55031;SDS011;40928;51.076;7.950;2024-01-15T08:48:22;8.77;;;5.53;;
55031;SDS011;40928;51.076;7.950;2024-01-15T08:50:47;9.02;;;5.00;;
55031;SDS011;40928;51.076;7.950;2024-01-15T08:53:13;7.80;;;4.63;;
55031;SDS011;40928;51.076;7.950;2024-01-15T08:55:39;7.50;;;4.13;;
55031;SDS011;40928;51.076;7.950;2024-01-15T08:58:05;8.70;;;4.68;;
55031;SDS011;40928;51.076;7.950;2024-01-15T09:00:31;5.43;;;3.83;;
55031;SDS011;40928;51.076;7.950;2024-01-15T09:02:57;10.38;;;4.90;;
55031;SDS011;40928;51.076;7.950;2024-01-15T09:05:23;8.93;;;4.55;;
55031;SDS011;40928;51.076;7.950;2024-01-15T09:07:48;7.93;;;4.50;;
55031;SDS011;40928;51.076;7.950;2024-01-15T09:10:17;9.45;;;4.50;;
55031;SDS011;40928;51.076;7.950;2024-01-15T09:12:43;8.40;;;5.22;;
55031;SDS011;40928;51.076;7.950;2024-01-15T09:15:08;12.75;;;5.10;;
55031;SDS011;40928;51.076;7.950;2024-01-15T09:17:34;7.72;;;5.00;;
55031;SDS011;40928;51.076;7.950;2024-01-15T09:19:59;8.15;;;4.30;;
55031;SDS011;40928;51.076;7.950;2024-01-15T09:22:25;8.18;;;4.70;;
55031;SDS011;40928;51.076;7.950;2024-01-15T09:24:51;8.90;;;5.00;;
55031;SDS011;40928;51.076;7.950;2024-01-15T09:27:16;9.30;;;4.75;;
55031;SDS011;40928;51.076;7.950;2024-01-15T09:29:42;7.13;;;4.70;;
55031;SDS011;40928;51.076;7.950;2024-01-15T09:32:10;7.55;;;4.57;;
55031;SDS011;40928;51.076;7.950;2024-01-15T09:34:37;8.13;;;5.35;;
55031;SDS011;40928;51.076;7.950;2024-01-15T09:37:02;11.60;;;4.90;;
55031;SDS011;40928;51.076;7.950;2024-01-15T09:39:29;10.77;;;4.85;;
55031;SDS011;40928;51.076;7.950;2024-01-15T09:41:55;7.22;;;5.22;;
55031;SDS011;40928;51.076;7.950;2024-01-15T09:44:21;9.25;;;5.15;;
55031;SDS011;40928;51.076;7.950;2024-01-15T09:46:47;10.00;;;5.72;;
55031;SDS011;40928;51.076;7.950;2024-01-15T09:49:18;7.82;;;5.07;;
55031;SDS011;40928;51.076;7.950;2024-01-15T09:51:44;9.23;;;4.57;;
55031;SDS011;40928;51.076;7.950;2024-01-15T09:54:10;10.25;;;5.15;;
55031;SDS011;40928;51.076;7.950;2024-01-15T09:56:38;9.10;;;5.28;;
55031;SDS011;40928;51.076;7.950;2024-01-15T09:59:05;9.35;;;4.95;;
55031;SDS011;40928;51.076;7.950;2024-01-15T10:01:33;8.30;;;4.63;;
55031;SDS011;40928;51.076;7.950;2024-01-15T10:04:02;8.70;;;5.05;;
55031;SDS011;40928;51.076;7.950;2024-01-15T10:06:28;11.10;;;5.43;;
55031;SDS011;40928;51.076;7.950;2024-01-15T10:08:53;9.07;;;5.72;;
55031;SDS011;40928;51.076;7.950;2024-01-15T10:11:21;11.52;;;4.85;;
55031;SDS011;40928;51.076;7.950;2024-01-15T10:13:47;11.20;;;5.90;;
55031;SDS011;40928;51.076;7.950;2024-01-15T10:16:16;15.27;;;6.30;;
55031;SDS011;40928;51.076;7.950;2024-01-15T10:18:41;7.80;;;5.57;;
55031;SDS011;40928;51.076;7.950;2024-01-15T10:21:07;11.23;;;6.43;;
55031;SDS011;40928;51.076;7.950;2024-01-15T10:23:33;11.05;;;5.40;;
55031;SDS011;40928;51.076;7.950;2024-01-15T10:25:59;9.73;;;5.75;;
55031;SDS011;40928;51.076;7.950;2024-01-15T10:28:28;8.90;;;5.75;;
55031;SDS011;40928;51.076;7.950;2024-01-15T10:30:56;10.90;;;5.60;;
55031;SDS011;40928;51.076;7.950;2024-01-15T10:33:24;7.47;;;4.50;;
55031;SDS011;40928;51.076;7.950;2024-01-15T10:35:53;6.72;;;4.00;;
55031;SDS011;40928;51.076;7.950;2024-01-15T10:38:23;19.70;;;4.60;;
55031;SDS011;40928;51.076;7.950;2024-01-15T10:40:53;7.78;;;4.38;;
55031;SDS011;40928;51.076;7.950;2024-01-15T10:43:20;8.77;;;4.75;;
55031;SDS011;40928;51.076;7.950;2024-01-15T10:45:46;8.48;;;5.10;;
55031;SDS011;40928;51.076;7.950;2024-01-15T10:48:13;7.55;;;4.45;;
55031;SDS011;40928;51.076;7.950;2024-01-15T10:50:41;7.50;;;4.20;;
55031;SDS011;40928;51.076;7.950;2024-01-15T10:53:08;6.47;;;4.18;;
55031;SDS011;40928;51.076;7.950;2024-01-15T10:55:38;8.45;;;4.28;;
55031;SDS011;40928;51.076;7.950;2024-01-15T10:58:07;7.22;;;4.28;;
55031;SDS011;40928;51.076;7.950;2024-01-15T11:00:36;4.78;;;3.58;;
55031;SDS011;40928;51.076;7.950;2024-01-15T11:03:06;10.68;;;4.68;;
55031;SDS011;40928;51.076;7.950;2024-01-15T11:05:44;7.03;;;4.30;;
55031;SDS011;40928;51.076;7.950;2024-01-15T11:08:10;6.95;;;3.90;;
55031;SDS011;40928;51.076;7.950;2024-01-15T11:13:15;5.30;;;3.17;;
55031;SDS011;40928;51.076;7.950;2024-01-15T11:16:01;8.82;;;3.78;;
55031;SDS011;40928;51.076;7.950;2024-01-15T11:18:32;5.05;;;3.38;;
55031;SDS011;40928;51.076;7.950;2024-01-15T11:26:29;10.88;;;3.17;;
55031;SDS011;40928;51.076;7.950;2024-01-15T11:34:20;5.07;;;2.40;;
55031;SDS011;40928;51.076;7.950;2024-01-15T11:41:52;4.10;;;2.58;;
55031;SDS011;40928;51.076;7.950;2024-01-15T11:44:20;4.32;;;2.05;;
55031;SDS011;40928;51.076;7.950;2024-01-15T11:47:08;3.67;;;2.30;;
55031;SDS011;40928;51.076;7.950;2024-01-15T11:52:23;2.73;;;1.93;;
55031;SDS011;40928;51.076;7.950;2024-01-15T11:54:55;4.63;;;2.80;;
55031;SDS011;40928;51.076;7.950;2024-01-15T11:57:52;6.13;;;2.58;;
55031;SDS011;40928;51.076;7.950;2024-01-15T12:00:19;5.05;;;2.65;;
55031;SDS011;40928;51.076;7.950;2024-01-15T12:02:46;3.22;;;1.73;;
55031;SDS011;40928;51.076;7.950;2024-01-15T12:05:15;4.97;;;2.58;;
55031;SDS011;40928;51.076;7.950;2024-01-15T12:07:42;3.75;;;1.92;;
55031;SDS011;40928;51.076;7.950;2024-01-15T12:10:13;5.18;;;1.63;;
55031;SDS011;40928;51.076;7.950;2024-01-15T12:15:27;6.85;;;2.08;;
55031;SDS011;40928;51.076;7.950;2024-01-15T12:17:58;4.43;;;1.88;;
55031;SDS011;40928;51.076;7.950;2024-01-15T12:20:29;4.88;;;1.60;;
55031;SDS011;40928;51.076;7.950;2024-01-15T12:22:56;5.63;;;1.92;;
55031;SDS011;40928;51.076;7.950;2024-01-15T12:25:25;2.10;;;1.40;;
55031;SDS011;40928;51.076;7.950;2024-01-15T12:27:54;2.67;;;1.20;;
55031;SDS011;40928;51.076;7.950;2024-01-15T12:30:20;3.55;;;1.30;;
55031;SDS011;40928;51.076;7.950;2024-01-15T12:32:46;5.25;;;1.60;;
55031;SDS011;40928;51.076;7.950;2024-01-15T12:35:12;1.88;;;1.02;;
55031;SDS011;40928;51.076;7.950;2024-01-15T12:37:39;4.05;;;1.60;;
55031;SDS011;40928;51.076;7.950;2024-01-15T12:40:06;2.50;;;1.05;;
55031;SDS011;40928;51.076;7.950;2024-01-15T12:42:33;3.25;;;1.30;;
55031;SDS011;40928;51.076;7.950;2024-01-15T12:45:02;2.20;;;1.40;;
55031;SDS011;40928;51.076;7.950;2024-01-15T12:47:30;3.05;;;1.45;;
55031;SDS011;40928;51.076;7.950;2024-01-15T12:49:57;4.43;;;1.58;;
55031;SDS011;40928;51.076;7.950;2024-01-15T12:52:26;2.85;;;1.23;;
55031;SDS011;40928;51.076;7.950;2024-01-15T12:54:52;4.10;;;1.42;;
55031;SDS011;40928;51.076;7.950;2024-01-15T12:57:18;4.88;;;1.30;;
55031;SDS011;40928;51.076;7.950;2024-01-15T12:59:44;4.97;;;1.08;;
55031;SDS011;40928;51.076;7.950;2024-01-15T13:02:12;5.93;;;1.35;;
55031;SDS011;40928;51.076;7.950;2024-01-15T13:04:38;2.25;;;1.20;;
55031;SDS011;40928;51.076;7.950;2024-01-15T13:07:08;1.17;;;0.75;;
55031;SDS011;40928;51.076;7.950;2024-01-15T13:09:50;1.42;;;1.00;;
55031;SDS011;40928;51.076;7.950;2024-01-15T13:12:19;1.92;;;1.30;;
55031;SDS011;40928;51.076;7.950;2024-01-15T13:14:45;4.32;;;1.40;;
55031;SDS011;40928;51.076;7.950;2024-01-15T13:17:12;1.67;;;1.17;;
55031;SDS011;40928;51.076;7.950;2024-01-15T13:19:39;2.17;;;1.30;;
55031;SDS011;40928;51.076;7.950;2024-01-15T13:22:05;1.92;;;1.13;;
55031;SDS011;40928;51.076;7.950;2024-01-15T13:24:33;2.75;;;1.60;;
55031;SDS011;40928;51.076;7.950;2024-01-15T13:26:58;4.57;;;1.52;;
55031;SDS011;40928;51.076;7.950;2024-01-15T13:29:25;3.53;;;1.08;;
55031;SDS011;40928;51.076;7.950;2024-01-15T13:31:50;4.38;;;1.08;;
55031;SDS011;40928;51.076;7.950;2024-01-15T13:34:16;7.05;;;1.45;;
55031;SDS011;40928;51.076;7.950;2024-01-15T13:36:42;8.20;;;1.63;;
55031;SDS011;40928;51.076;7.950;2024-01-15T13:39:07;5.80;;;1.67;;
55031;SDS011;40928;51.076;7.950;2024-01-15T13:41:34;6.50;;;1.52;;
55031;SDS011;40928;51.076;7.950;2024-01-15T13:44:00;2.35;;;1.15;;
55031;SDS011;40928;51.076;7.950;2024-01-15T13:46:26;1.70;;;1.20;;
55031;SDS011;40928;51.076;7.950;2024-01-15T13:48:52;4.40;;;1.75;;
55031;SDS011;40928;51.076;7.950;2024-01-15T13:51:18;3.05;;;1.65;;
55031;SDS011;40928;51.076;7.950;2024-01-15T13:53:44;3.72;;;1.33;;
55031;SDS011;40928;51.076;7.950;2024-01-15T13:56:09;7.53;;;1.58;;
55031;SDS011;40928;51.076;7.950;2024-01-15T13:58:36;5.00;;;1.75;;
55031;SDS011;40928;51.076;7.950;2024-01-15T14:01:02;4.88;;;1.58;;
55031;SDS011;40928;51.076;7.950;2024-01-15T14:03:31;2.65;;;1.48;;
55031;SDS011;40928;51.076;7.950;2024-01-15T14:05:57;2.42;;;1.30;;
55031;SDS011;40928;51.076;7.950;2024-01-15T14:08:23;5.03;;;1.73;;
55031;SDS011;40928;51.076;7.950;2024-01-15T14:10:49;5.85;;;2.42;;
55031;SDS011;40928;51.076;7.950;2024-01-15T14:13:14;3.30;;;1.40;;
55031;SDS011;40928;51.076;7.950;2024-01-15T14:15:40;4.13;;;1.77;;
55031;SDS011;40928;51.076;7.950;2024-01-15T14:18:06;4.97;;;1.63;;
55031;SDS011;40928;51.076;7.950;2024-01-15T14:20:32;6.50;;;2.05;;
55031;SDS011;40928;51.076;7.950;2024-01-15T14:22:58;8.93;;;2.17;;
55031;SDS011;40928;51.076;7.950;2024-01-15T14:25:24;7.55;;;2.22;;
55031;SDS011;40928;51.076;7.950;2024-01-15T14:27:49;7.97;;;2.38;;
55031;SDS011;40928;51.076;7.950;2024-01-15T14:30:15;5.65;;;2.60;;
55031;SDS011;40928;51.076;7.950;2024-01-15T14:32:42;9.93;;;2.40;;
55031;SDS011;40928;51.076;7.950;2024-01-15T14:35:08;12.75;;;3.47;;
55031;SDS011;40928;51.076;7.950;2024-01-15T14:37:36;9.10;;;3.22;;
55031;SDS011;40928;51.076;7.950;2024-01-15T14:40:03;7.50;;;2.90;;
55031;SDS011;40928;51.076;7.950;2024-01-15T14:42:30;9.00;;;3.60;;
55031;SDS011;40928;51.076;7.950;2024-01-15T14:44:56;5.65;;;3.50;;
55031;SDS011;40928;51.076;7.950;2024-01-15T14:47:21;6.55;;;3.50;;
55031;SDS011;40928;51.076;7.950;2024-01-15T14:49:49;12.50;;;3.75;;
55031;SDS011;40928;51.076;7.950;2024-01-15T14:52:15;10.95;;;4.70;;
55031;SDS011;40928;51.076;7.950;2024-01-15T14:54:41;7.95;;;3.78;;
55031;SDS011;40928;51.076;7.950;2024-01-15T14:57:07;17.30;;;5.05;;
55031;SDS011;40928;51.076;7.950;2024-01-15T14:59:33;12.43;;;5.18;;
55031;SDS011;40928;51.076;7.950;2024-01-15T15:01:58;9.80;;;4.53;;